createdAt,value
2022-10-16T00:00:02.676Z,0
2022-10-16T00:15:02.953Z,0
2022-10-16T00:30:02.444Z,0
2022-10-16T00:45:02.796Z,0
2022-10-16T01:00:03.264Z,0
2022-10-16T01:15:02.722Z,0
2022-10-16T01:30:03.119Z,0
2022-10-16T01:45:02.716Z,0
2022-10-16T02:00:03.060Z,0
2022-10-16T02:15:02.702Z,0
2022-10-16T02:30:02.939Z,0
2022-10-16T02:45:02.350Z,0
2022-10-16T03:00:02.808Z,0
2022-10-16T03:15:03.245Z,0
2022-10-16T03:30:02.741Z,0
2022-10-16T03:45:03.145Z,0
2022-10-16T04:00:02.727Z,0
2022-10-16T04:15:03.023Z,0
2022-10-16T04:30:02.458Z,0
2022-10-16T04:45:02.900Z,0
2022-10-16T05:00:02.311Z,0
2022-10-16T05:15:02.822Z,0
2022-10-16T05:30:02.220Z,0
2022-10-16T05:45:02.768Z,0
2022-10-16T06:00:03.116Z,0
2022-10-16T06:15:02.771Z,5
2022-10-16T06:30:02.942Z,17
2022-10-16T06:45:02.392Z,29
2022-10-16T07:00:02.838Z,48
2022-10-16T07:15:03.275Z,21
2022-10-16T07:30:05.152Z,48
2022-10-16T07:45:03.157Z,181
2022-10-16T08:00:02.798Z,199
2022-10-16T08:15:03.038Z,238
2022-10-16T08:30:02.488Z,278
2022-10-16T08:45:02.953Z,290
2022-10-16T09:00:02.371Z,305
2022-10-16T09:15:02.817Z,333
2022-10-16T09:30:02.232Z,355
2022-10-16T09:45:02.819Z,190
2022-10-16T10:00:03.106Z,116
2022-10-16T10:15:02.561Z,102
2022-10-16T10:30:03.120Z,403
2022-10-16T10:45:02.433Z,418
2022-10-16T11:00:02.867Z,530
2022-10-16T11:15:02.289Z,479
2022-10-16T11:30:02.835Z,419
2022-10-16T11:45:03.202Z,56
2022-10-16T12:00:02.840Z,418
2022-10-16T12:15:17.465Z,404
2022-10-16T12:30:02.469Z,140
2022-10-16T12:45:02.947Z,362
2022-10-16T13:00:02.387Z,274
2022-10-16T13:15:02.866Z,320
2022-10-16T13:30:02.257Z,147
2022-10-16T13:45:02.859Z,344
2022-10-16T14:00:02.150Z,68
2022-10-16T14:15:02.575Z,239
2022-10-16T14:30:03.034Z,194
2022-10-16T14:45:02.475Z,165
2022-10-16T15:00:02.953Z,135
2022-10-16T15:15:02.332Z,56
2022-10-16T15:30:02.883Z,16
2022-10-16T15:45:02.206Z,22
2022-10-16T16:00:04.196Z,11
2022-10-16T16:15:05.648Z,0
2022-10-16T16:30:02.547Z,0
2022-10-16T16:45:02.977Z,0
2022-10-16T17:00:02.391Z,0
2022-10-16T17:15:02.901Z,0
2022-10-16T17:30:02.291Z,0
2022-10-16T17:45:02.891Z,0
2022-10-16T18:00:02.184Z,0
2022-10-16T18:15:02.636Z,0
2022-10-16T18:30:03.076Z,0
2022-10-16T18:45:02.468Z,0
2022-10-16T19:00:02.914Z,0
2022-10-16T19:15:02.351Z,0
2022-10-16T19:30:02.940Z,0
2022-10-16T19:45:02.228Z,0
2022-10-16T20:00:02.916Z,0
2022-10-16T20:15:02.128Z,0
2022-10-16T20:30:02.545Z,0
2022-10-16T20:45:02.991Z,0
2022-10-16T21:00:02.465Z,0
2022-10-16T21:15:14.316Z,0
2022-10-16T21:30:02.352Z,0
2022-10-16T21:45:02.951Z,0
2022-10-16T22:00:04.333Z,0
2022-10-16T22:15:02.666Z,0
2022-10-16T22:30:03.107Z,0
2022-10-16T22:45:02.518Z,0
2022-10-16T23:00:02.973Z,0
2022-10-16T23:15:02.410Z,0
2022-10-16T23:30:02.982Z,0
2022-10-16T23:45:02.253Z,0
